METAR UND TAF INFORMATION
LGAV 211550Z 28007KT 9999 FEW020 SCT035 18/12 Q1012 NOSIG

 FLUGHAFENKARTE

 RUNWAY INFORMATION
Runway 03L Runway length 12467 ft Runway width 148 ft
Runway elevation 255 ft Runway displaced threshold 984 ft Runway heading 37
Runway 21R Runway length 12467 ft Runway width 148 ft
Runway elevation 282 ft Runway displaced threshold 984 ft Runway heading 217
Runway 03R Runway length 13123 ft Runway width 148 ft
Runway elevation 271 ft Runway displaced threshold 984 ft Runway heading 37
Runway 21L Runway length 13123 ft Runway width 148 ft
Runway elevation 303 ft Runway displaced threshold 984 ft Runway heading 217

 AIRPORT FREQUENCIES
Type APP Name ATHINAI AP Frequency 126.575 MHZ
Type ARR Name ATHINAI AR Frequency 132.975 MHZ
Type ATIS Name ATIS Frequency 136.125 MHZ
Type CLD Name CLNC DEL Frequency 118.675 MHZ
Type DEP Name ATHINAI DE Frequency 128.95 MHZ
Type DIR Name ATHINAI DI Frequency 121.4 MHZ
Type GND Name GND Frequency 121.75 MHZ
Type INFO Name INFO Frequency 136.025 MHZ
Type PMSV Name ATHINAI VO Frequency 127.8 MHZ
Type RDO Name RDO Frequency 563.7 MHZ
Type TWR Name TWR Frequency 136.275 MHZ

 AIRPORT NEAR NAVIGATION AIDS
Type VOR-DME Name Eleftherios Venizelos Frequency 109600 KHZ
Type VOR-DME Name Eleftherios Venizelos Frequency 117500 KHZ



Version 5.0.0: Changelog

Impressum | Datenschutzerklärung

Virtual Airlines Manager